Time;durP1;ratioP1;P1;durP2;ratioP2;P2;SDS_P1;SDS_P2;PMS_P1;PMS_P2;Temp;Humidity;BMP_temperature;BMP_pressure;BME280_temperature;BME280_humidity;BME280_pressure;Samples;Min_cycle;Max_cycle;Signal;HPM_P1;HPM_P2
2021/10/11 00:01:00;;;;;;;20.73;9.27;;;;;;;11.29;100.00;100996.59;5014705;28;20036;-75
2021/10/11 00:03:25;;;;;;;22.55;9.65;;;;;;;11.24;100.00;100996.41;4980337;28;20037;-73
2021/10/11 00:05:50;;;;;;;17.25;10.48;;;;;;;11.28;100.00;100995.72;5015190;28;20385;-76
2021/10/11 00:08:16;;;;;;;20.60;9.60;;;;;;;11.26;100.00;100984.41;5014932;28;20479;-74
2021/10/11 00:10:41;;;;;;;20.17;10.63;;;;;;;11.26;100.00;100976.66;5014309;28;20487;-75
2021/10/11 00:13:12;;;;;;;26.63;9.93;;;;;;;11.38;100.00;100976.31;5014882;28;20029;-74
2021/10/11 00:15:38;;;;;;;25.77;10.30;;;;;;;11.39;100.00;100966.84;5014744;28;20456;-72
2021/10/11 00:18:03;;;;;;;22.88;11.38;;;;;;;11.33;100.00;100962.31;5014617;28;20018;-72
2021/10/11 00:20:29;;;;;;;23.75;11.25;;;;;;;11.53;100.00;100960.56;5014706;28;20022;-75
2021/10/11 00:22:54;;;;;;;24.63;9.75;;;;;;;11.57;100.00;100957.25;5014893;28;20028;-72
2021/10/11 00:25:20;;;;;;;19.63;8.85;;;;;;;11.54;100.00;100954.56;5014682;28;20041;-72
2021/10/11 00:27:45;;;;;;;19.92;9.50;;;;;;;11.57;100.00;100954.66;5014689;28;20097;-71
2021/10/11 00:30:12;;;;;;;23.23;10.35;;;;;;;11.61;100.00;100954.00;5014520;28;20053;-72
2021/10/11 00:32:38;;;;;;;30.20;10.95;;;;;;;11.63;100.00;100943.72;5014417;28;20034;-73
2021/10/11 00:35:04;;;;;;;27.27;10.63;;;;;;;11.76;100.00;100942.47;5014229;28;20026;-71
2021/10/11 00:37:30;;;;;;;23.35;10.25;;;;;;;11.75;100.00;100949.38;5013944;28;20034;-73
2021/10/11 00:39:56;;;;;;;20.95;10.25;;;;;;;11.85;100.00;100958.38;4999537;28;20061;-79
2021/10/11 00:42:21;;;;;;;26.30;12.18;;;;;;;11.82;100.00;100959.16;5012155;28;20099;-77
2021/10/11 00:44:47;;;;;;;47.00;14.48;;;;;;;11.80;100.00;100947.84;5013102;28;20021;-77
2021/10/11 00:47:12;;;;;;;31.95;13.30;;;;;;;11.87;100.00;100937.75;5003811;28;20033;-80
2021/10/11 00:49:38;;;;;;;36.72;12.90;;;;;;;11.92;100.00;100934.50;4977124;28;20040;-78
2021/10/11 00:52:04;;;;;;;31.00;12.48;;;;;;;11.73;100.00;100890.66;5008412;28;20060;-77
2021/10/11 00:54:30;;;;;;;36.50;13.05;;;;;;;11.95;100.00;100913.03;4995593;28;20030;-76
2021/10/11 00:56:56;;;;;;;26.48;9.75;;;;;;;11.96;100.00;100896.72;5013761;28;20448;-77
2021/10/11 00:59:22;;;;;;;23.10;9.30;;;;;;;11.86;100.00;100879.06;5001328;28;20040;-70
2021/10/11 01:01:47;;;;;;;28.10;10.40;;;;;;;11.79;100.00;100860.72;4995735;28;20097;-76
2021/10/11 01:04:13;;;;;;;23.88;9.48;;;;;;;11.74;100.00;100844.13;5000079;28;20017;-72
2021/10/11 01:06:40;;;;;;;20.58;8.55;;;;;;;11.44;100.00;100811.09;5002343;28;20033;-72
2021/10/11 01:09:07;;;;;;;17.90;8.32;;;;;;;11.48;100.00;100825.91;5002508;28;20033;-73
2021/10/11 01:11:34;;;;;;;23.13;8.00;;;;;;;11.53;100.00;100838.16;5013116;28;20109;-75
2021/10/11 01:14:00;;;;;;;20.73;9.18;;;;;;;11.46;100.00;100829.25;5013847;28;20013;-71
2021/10/11 01:16:26;;;;;;;15.60;7.93;;;;;;;11.42;100.00;100824.78;5013181;28;20554;-74
2021/10/11 01:18:51;;;;;;;19.48;8.98;;;;;;;11.45;100.00;100854.25;4978564;28;20057;-72
2021/10/11 01:21:17;;;;;;;29.65;10.18;;;;;;;11.53;100.00;100853.66;5013008;28;20025;-73
2021/10/11 01:23:42;;;;;;;24.38;10.20;;;;;;;11.35;100.00;100827.94;5012512;28;20032;-71
2021/10/11 01:26:08;;;;;;;25.17;10.50;;;;;;;11.56;100.00;100862.41;5013025;28;20026;-74
2021/10/11 01:28:33;;;;;;;37.92;13.32;;;;;;;11.56;100.00;100848.59;5012752;28;20566;-74
2021/10/11 01:30:59;;;;;;;25.73;11.18;;;;;;;11.63;100.00;100864.41;5012781;28;20026;-71
2021/10/11 01:33:24;;;;;;;30.90;12.02;;;;;;;11.66;100.00;100868.81;5013044;28;20029;-73
2021/10/11 01:35:50;;;;;;;33.85;12.45;;;;;;;11.51;100.00;100829.44;5012931;28;20026;-71
2021/10/11 01:38:16;;;;;;;32.72;11.77;;;;;;;11.75;100.00;100869.19;5012925;28;20056;-75
2021/10/11 01:40:41;;;;;;;26.90;10.18;;;;;;;11.76;100.00;100865.78;5013158;28;20349;-73
2021/10/11 01:43:08;;;;;;;29.00;12.02;;;;;;;11.59;100.00;100826.34;5012987;28;20137;-79
2021/10/11 01:45:35;;;;;;;27.38;10.60;;;;;;;11.84;100.00;100854.81;5011112;28;20032;-75
2021/10/11 01:48:01;;;;;;;28.48;11.40;;;;;;;11.80;100.00;100857.31;5012573;28;20133;-74
2021/10/11 01:50:26;;;;;;;25.52;10.23;;;;;;;11.78;100.00;100868.41;5013007;28;20026;-80
2021/10/11 01:52:52;;;;;;;20.85;9.70;;;;;;;11.68;100.00;100846.50;5012244;28;20385;-77
2021/10/11 01:55:17;;;;;;;30.58;11.68;;;;;;;11.73;100.00;100860.47;5012358;28;20400;-77
2021/10/11 01:57:43;;;;;;;15.65;8.30;;;;;;;11.67;100.00;100851.59;5012096;28;20057;-79
2021/10/11 02:00:09;;;;;;;27.15;10.57;;;;;;;11.78;100.00;100864.13;5012944;28;20028;-75
2021/10/11 02:02:35;;;;;;;16.65;8.98;;;;;;;11.81;100.00;100855.59;5012371;28;20021;-76
2021/10/11 02:05:01;;;;;;;20.90;9.35;;;;;;;11.78;100.00;100866.69;5011670;28;20034;-78
2021/10/11 02:07:26;;;;;;;26.17;9.32;;;;;;;11.70;100.00;100855.19;4970343;28;20125;-79
2021/10/11 02:09:52;;;;;;;24.80;12.05;;;;;;;11.81;100.00;100860.75;4954666;28;20030;-78
2021/10/11 02:12:17;;;;;;;29.13;10.15;;;;;;;11.85;100.00;100865.25;4971070;28;20500;-80
2021/10/11 02:14:43;;;;;;;25.77;11.73;;;;;;;11.85;100.00;100856.59;4962142;28;20568;-78
2021/10/11 02:17:08;;;;;;;27.58;11.50;;;;;;;11.85;100.00;100843.66;4970543;28;20031;-82
2021/10/11 02:19:34;;;;;;;30.65;10.07;;;;;;;11.94;100.00;100859.53;4970849;28;20019;-80
2021/10/11 02:21:59;;;;;;;28.88;11.88;;;;;;;11.98;100.00;100857.13;4970230;28;20097;-80
2021/10/11 02:24:25;;;;;;;32.58;12.38;;;;;;;11.92;100.00;100853.41;4970504;28;20057;-83
2021/10/11 02:26:50;;;;;;;27.58;11.23;;;;;;;11.88;100.00;100833.44;4970813;28;20061;-79
2021/10/11 02:29:16;;;;;;;28.83;10.05;;;;;;;11.82;100.00;100832.38;4937325;28;20023;-78
2021/10/11 02:31:42;;;;;;;22.20;9.25;;;;;;;11.79;100.00;100824.50;4970412;28;20038;-81
2021/10/11 02:34:07;;;;;;;24.98;8.85;;;;;;;11.85;100.00;100833.31;4954309;28;20564;-81
2021/10/11 02:36:33;;;;;;;19.38;9.07;;;;;;;11.75;100.00;100819.13;4970325;28;20030;-79
2021/10/11 02:38:58;;;;;;;25.17;9.48;;;;;;;11.84;100.00;100834.13;5000497;28;20519;-78
2021/10/11 02:41:24;;;;;;;30.95;10.48;;;;;;;11.82;100.00;100810.78;5011675;28;20018;-76
2021/10/11 02:43:49;;;;;;;23.75;9.05;;;;;;;11.86;100.00;100811.78;5011716;28;20018;-77
2021/10/11 02:46:16;;;;;;;21.30;9.05;;;;;;;11.76;100.00;100800.22;5011934;28;20044;-80
2021/10/11 02:48:42;;;;;;;21.42;7.90;;;;;;;11.81;100.00;100817.69;5011754;28;20018;-75
2021/10/11 02:51:07;;;;;;;18.58;8.60;;;;;;;11.88;100.00;100825.69;5011331;28;20033;-80
2021/10/11 02:53:33;;;;;;;21.30;8.38;;;;;;;11.77;100.00;100804.56;5011889;28;20076;-76
2021/10/11 02:55:58;;;;;;;17.92;8.20;;;;;;;11.95;100.00;100827.63;4994311;28;20057;-79
2021/10/11 02:58:24;;;;;;;18.02;7.63;;;;;;;11.92;100.00;100809.44;5011213;28;20034;-76
2021/10/11 03:00:50;;;;;;;22.77;8.23;;;;;;;11.87;100.00;100803.22;5011514;28;20548;-75
2021/10/11 03:03:15;;;;;;;17.65;7.93;;;;;;;11.91;100.00;100794.72;5011821;28;20109;-75
2021/10/11 03:05:41;;;;;;;27.75;9.00;;;;;;;11.78;100.00;100767.53;5010948;28;20022;-76
2021/10/11 03:08:06;;;;;;;23.38;10.15;;;;;;;11.91;100.00;100784.38;5011520;28;20026;-75
2021/10/11 03:10:32;;;;;;;19.52;8.70;;;;;;;11.92;100.00;100779.25;5011181;28;20032;-75
2021/10/11 03:12:57;;;;;;;25.20;8.43;;;;;;;11.92;100.00;100776.66;4976434;28;20065;-80
2021/10/11 03:15:23;;;;;;;20.88;8.43;;;;;;;11.64;100.00;100730.81;5011531;28;20105;-75
2021/10/11 03:17:49;;;;;;;21.90;8.15;;;;;;;11.92;100.00;100788.75;5015695;28;20033;-78
2021/10/11 03:20:14;;;;;;;22.13;7.55;;;;;;;11.91;100.00;100777.53;5015460;28;20097;-78
2021/10/11 03:22:40;;;;;;;15.23;7.28;;;;;;;11.91;100.00;100780.09;4989939;28;20057;-76
2021/10/11 03:25:06;;;;;;;27.48;8.93;;;;;;;11.78;100.00;100759.78;5015216;28;20026;-79
2021/10/11 03:27:31;;;;;;;18.63;7.95;;;;;;;11.89;100.00;100778.28;5015114;28;20057;-80
2021/10/11 03:29:57;;;;;;;18.15;6.93;;;;;;;11.84;100.00;100772.94;5013894;28;20058;-75
2021/10/11 03:32:22;;;;;;;27.70;8.52;;;;;;;11.92;100.00;100786.16;5015816;28;20037;-75
2021/10/11 03:34:48;;;;;;;18.15;7.15;;;;;;;11.76;100.00;100764.91;4997774;28;20018;-75
2021/10/11 03:37:13;;;;;;;18.15;7.45;;;;;;;11.84;100.00;100766.88;5015642;28;20373;-77
2021/10/11 03:39:39;;;;;;;15.55;7.25;;;;;;;11.80;100.00;100763.28;5011682;28;20042;-76
2021/10/11 03:42:04;;;;;;;20.45;7.82;;;;;;;11.77;100.00;100760.59;5013712;28;20408;-76
2021/10/11 03:44:30;;;;;;;17.00;7.57;;;;;;;11.76;100.00;100756.25;5013164;28;20030;-75
2021/10/11 03:46:55;;;;;;;17.23;7.70;;;;;;;11.74;100.00;100745.84;5014881;28;20478;-75
2021/10/11 03:49:21;;;;;;;15.90;7.57;;;;;;;11.77;100.00;100753.72;5015469;28;20072;-74
2021/10/11 03:51:46;;;;;;;18.13;6.97;;;;;;;11.71;100.00;100732.78;4980311;28;20040;-76
2021/10/11 03:54:12;;;;;;;19.10;8.18;;;;;;;11.77;100.00;100743.34;5014161;28;20026;-76
2021/10/11 03:56:37;;;;;;;18.10;7.63;;;;;;;11.81;100.00;100742.66;4993557;28;20022;-76
2021/10/11 03:59:03;;;;;;;21.00;8.32;;;;;;;11.86;100.00;100752.28;4995507;28;20046;-75
2021/10/11 04:01:28;;;;;;;20.30;7.88;;;;;;;11.75;100.00;100745.03;4995516;28;20022;-75
2021/10/11 04:03:54;;;;;;;20.60;8.07;;;;;;;11.87;100.00;100752.34;4977502;28;20050;-75
2021/10/11 04:06:19;;;;;;;28.67;9.10;;;;;;;11.89;100.00;100744.66;4995423;28;20081;-76
2021/10/11 04:08:47;;;;;;;21.33;8.32;;;;;;;11.97;100.00;100756.19;4995286;28;20026;-77
2021/10/11 04:13:42;;;;;;;26.50;10.68;;;;;;;12.03;100.00;100746.03;4995271;28;20029;-74
2021/10/11 04:16:08;;;;;;;29.20;9.32;;;;;;;12.05;100.00;100749.56;4995189;28;20022;-76
2021/10/11 04:18:33;;;;;;;32.92;10.90;;;;;;;12.10;100.00;100753.22;4994979;28;20085;-78
2021/10/11 04:20:59;;;;;;;23.85;9.63;;;;;;;12.07;100.00;100740.13;4995061;28;20555;-74
2021/10/11 04:23:25;;;;;;;36.03;10.60;;;;;;;11.94;100.00;100714.66;4995245;28;20449;-76
2021/10/11 04:25:50;;;;;;;32.03;11.32;;;;;;;12.05;100.00;100736.63;4995213;28;20023;-74
2021/10/11 04:28:16;;;;;;;26.98;9.50;;;;;;;11.96;100.00;100713.00;4994492;28;20026;-74
2021/10/11 04:30:42;;;;;;;29.60;9.65;;;;;;;12.07;100.00;100739.28;4995043;28;20023;-75
2021/10/11 04:33:08;;;;;;;25.15;8.63;;;;;;;12.10;100.00;100741.94;4995132;28;20026;-77
2021/10/11 04:35:34;;;;;;;26.20;8.63;;;;;;;12.08;100.00;100728.97;4994888;28;20027;-74
2021/10/11 04:38:00;;;;;;;23.30;8.15;;;;;;;12.04;100.00;100724.53;4994989;28;20029;-74
2021/10/11 04:40:25;;;;;;;15.27;6.85;;;;;;;12.15;100.00;100740.44;4977550;28;20026;-75
2021/10/11 04:42:50;;;;;;;20.52;7.72;;;;;;;12.14;100.00;100733.50;4995097;28;20018;-81
2021/10/11 04:45:16;;;;;;;23.92;7.82;;;;;;;12.13;100.00;100736.91;4995047;28;20018;-80
2021/10/11 04:47:42;;;;;;;22.75;8.35;;;;;;;12.22;100.00;100737.22;4993258;28;20030;-80
2021/10/11 04:50:08;;;;;;;14.45;6.88;;;;;;;12.19;100.00;100737.13;4994703;28;20041;-80
2021/10/11 04:52:33;;;;;;;25.75;7.68;;;;;;;12.20;100.00;100733.72;4994770;28;20034;-80
2021/10/11 04:54:59;;;;;;;26.83;8.65;;;;;;;12.23;100.00;100740.69;4994689;28;20457;-80
2021/10/11 04:57:24;;;;;;;25.13;9.95;;;;;;;12.25;100.00;100741.59;4994717;28;20034;-80
2021/10/11 04:59:50;;;;;;;31.08;8.85;;;;;;;11.98;100.00;100712.22;4977047;28;20543;-80
2021/10/11 05:02:16;;;;;;;26.58;8.63;;;;;;;12.00;100.00;100704.56;4993125;28;20125;-80
2021/10/11 05:04:41;;;;;;;27.20;8.73;;;;;;;12.12;100.00;100724.78;4994600;28;20093;-83
2021/10/11 05:07:06;;;;;;;31.15;9.52;;;;;;;12.09;100.00;100709.16;5013848;28;20026;-74
2021/10/11 05:09:32;;;;;;;29.42;9.70;;;;;;;12.23;100.00;100735.53;5013542;28;20530;-70
2021/10/11 05:11:58;;;;;;;27.63;9.38;;;;;;;12.03;100.00;100703.78;5013751;28;20048;-72
2021/10/11 05:14:23;;;;;;;39.10;10.88;;;;;;;12.25;100.00;100739.91;4978643;28;20396;-75
2021/10/11 05:16:49;;;;;;;38.75;11.60;;;;;;;12.27;100.00;100737.38;5013551;28;20079;-72
2021/10/11 05:19:15;;;;;;;29.92;9.40;;;;;;;12.22;100.00;100726.00;5009290;28;20093;-73
2021/10/11 05:21:40;;;;;;;36.13;11.05;;;;;;;12.27;100.00;100737.38;5004941;28;20034;-73
2021/10/11 05:24:06;;;;;;;28.88;8.82;;;;;;;12.22;100.00;100732.03;5002392;28;20025;-73
2021/10/11 05:26:31;;;;;;;34.90;10.43;;;;;;;12.22;100.00;100734.63;5003754;28;20029;-76
2021/10/11 05:28:58;;;;;;;27.23;10.20;;;;;;;12.24;100.00;100735.56;5003501;28;20026;-73
2021/10/11 05:31:23;;;;;;;21.63;7.80;;;;;;;12.19;100.00;100725.91;5001815;28;20504;-75
2021/10/11 05:33:49;;;;;;;19.52;7.32;;;;;;;12.24;100.00;100719.16;5003904;28;20025;-74
2021/10/11 05:36:15;;;;;;;20.58;6.15;;;;;;;12.23;100.00;100720.00;5003022;28;20018;-76
2021/10/11 05:38:41;;;;;;;23.88;6.60;;;;;;;12.35;100.00;100735.03;5001885;28;20022;-73
2021/10/11 05:41:06;;;;;;;20.85;6.75;;;;;;;12.45;100.00;100739.72;5008111;28;20017;-78
2021/10/11 05:43:32;;;;;;;31.48;7.22;;;;;;;12.44;100.00;100737.97;5004936;28;20022;-72
2021/10/11 05:45:57;;;;;;;26.45;6.82;;;;;;;12.18;100.00;100690.47;4985783;28;20464;-74
2021/10/11 05:48:23;;;;;;;24.70;7.28;;;;;;;12.39;100.00;100735.19;5009229;28;20376;-74
2021/10/11 05:50:48;;;;;;;23.63;6.95;;;;;;;12.30;100.00;100729.72;5012547;28;20036;-74
2021/10/11 05:53:14;;;;;;;32.58;7.95;;;;;;;12.33;100.00;100740.19;5012602;28;20024;-75
2021/10/11 05:55:39;;;;;;;19.38;6.40;;;;;;;12.41;100.00;100751.69;5012333;28;20030;-78
2021/10/11 05:58:05;;;;;;;21.02;6.82;;;;;;;12.42;100.00;100760.31;5012158;28;20050;-76
2021/10/11 06:00:30;;;;;;;24.25;7.30;;;;;;;12.38;100.00;100741.22;5010856;28;20037;-73
2021/10/11 06:02:56;;;;;;;30.88;7.82;;;;;;;12.29;100.00;100739.19;5009800;28;20100;-77
2021/10/11 06:05:21;;;;;;;22.42;7.47;;;;;;;12.32;100.00;100735.81;5012472;28;20014;-76
2021/10/11 06:07:47;;;;;;;36.83;12.38;;;;;;;12.32;100.00;100751.34;5007572;28;20585;-74
2021/10/11 06:10:12;;;;;;;42.88;14.93;;;;;;;12.36;100.00;100747.16;5009804;28;20076;-76
2021/10/11 06:12:38;;;;;;;35.47;12.55;;;;;;;12.19;100.00;100724.16;5012117;28;20454;-75
2021/10/11 06:15:04;;;;;;;34.65;11.15;;;;;;;12.30;100.00;100738.38;5012312;28;20098;-77
2021/10/11 06:17:30;;;;;;;35.55;11.05;;;;;;;12.28;100.00;100736.56;5012253;28;20037;-77
2021/10/11 06:19:55;;;;;;;31.35;12.90;;;;;;;12.16;100.00;100728.38;5011897;28;20018;-77
2021/10/11 06:22:21;;;;;;;32.42;11.93;;;;;;;12.19;100.00;100731.94;5010694;28;20088;-76
2021/10/11 06:24:47;;;;;;;37.10;12.18;;;;;;;12.24;100.00;100745.03;5011755;28;20022;-73
2021/10/11 06:27:12;;;;;;;37.03;12.57;;;;;;;12.22;100.00;100737.22;5011504;28;20021;-73
2021/10/11 06:29:38;;;;;;;33.58;11.65;;;;;;;12.29;100.00;100738.31;5003086;28;20022;-78
2021/10/11 06:32:04;;;;;;;25.40;10.75;;;;;;;12.22;100.00;100721.69;5001774;28;20504;-72
2021/10/11 06:34:29;;;;;;;30.52;12.25;;;;;;;12.24;100.00;100732.09;5010126;28;20028;-72
2021/10/11 06:36:55;;;;;;;22.45;9.13;;;;;;;12.20;100.00;100727.63;5012066;28;20435;-71
2021/10/11 06:39:20;;;;;;;23.77;8.65;;;;;;;12.19;100.00;100720.72;5012300;28;20064;-74
2021/10/11 06:41:46;;;;;;;22.40;8.27;;;;;;;12.20;100.00;100727.63;5012243;28;20030;-78
2021/10/11 06:44:11;;;;;;;25.10;8.52;;;;;;;12.13;100.00;100724.81;5011877;28;20532;-77
2021/10/11 06:46:37;;;;;;;16.38;8.75;;;;;;;12.14;100.00;100726.59;5010495;28;20064;-76
2021/10/11 06:49:02;;;;;;;18.08;8.10;;;;;;;12.04;100.00;100716.75;5010676;28;20072;-75
2021/10/11 06:51:28;;;;;;;26.95;9.38;;;;;;;12.06;100.00;100717.72;5009714;28;20116;-75
2021/10/11 06:53:53;;;;;;;25.15;9.00;;;;;;;12.16;100.00;100725.78;5012002;28;20072;-74
2021/10/11 06:56:18;;;;;;;28.23;14.02;;;;;;;12.21;100.00;100727.72;5010424;28;20018;-76
2021/10/11 06:58:44;;;;;;;20.63;9.45;;;;;;;12.21;100.00;100726.81;5011886;28;20049;-74
2021/10/11 07:01:09;;;;;;;31.17;12.02;;;;;;;12.16;100.00;100718.88;4960720;28;20026;-75
2021/10/11 07:03:37;;;;;;;24.42;9.60;;;;;;;12.05;100.00;100692.66;5011908;28;20029;-76
2021/10/11 07:06:06;;;;;;;31.27;10.95;;;;;;;12.23;100.00;100713.09;5011844;28;20022;-74
2021/10/11 07:08:32;;;;;;;27.75;12.63;;;;;;;12.32;100.00;100730.63;5011771;28;20033;-74
2021/10/11 07:10:58;;;;;;;28.27;9.55;;;;;;;12.29;100.00;100718.47;5011770;28;20022;-74
2021/10/11 07:13:24;;;;;;;28.02;11.07;;;;;;;12.37;100.00;100723.03;5011467;28;20028;-75
2021/10/11 07:15:51;;;;;;;21.65;8.77;;;;;;;12.29;100.00;100720.19;4960781;28;20473;-75
2021/10/11 07:18:16;;;;;;;21.38;7.50;;;;;;;12.29;100.00;100712.44;5010311;28;20486;-75
2021/10/11 07:20:44;;;;;;;17.35;7.43;;;;;;;12.32;100.00;100715.09;5011484;28;20108;-75
2021/10/11 07:23:11;;;;;;;17.02;7.80;;;;;;;12.29;100.00;100720.19;5011539;28;20367;-78
2021/10/11 07:25:37;;;;;;;16.35;9.50;;;;;;;12.26;100.00;100718.38;5011768;28;20384;-76
2021/10/11 07:28:03;;;;;;;17.45;10.40;;;;;;;12.21;100.00;100714.75;5011255;28;20034;-75
2021/10/11 07:30:31;;;;;;;20.48;9.90;;;;;;;12.00;100.00;100660.56;5011527;28;20457;-76
2021/10/11 07:32:57;;;;;;;15.68;8.02;;;;;;;12.17;100.00;100687.00;5011343;28;20017;-80
2021/10/11 07:35:22;;;;;;;19.38;12.30;;;;;;;12.19;100.00;100684.47;5011686;28;20500;-76
2021/10/11 07:37:49;;;;;;;22.60;11.75;;;;;;;12.17;100.00;100679.22;5011582;28;20023;-74
2021/10/11 07:40:15;;;;;;;18.10;10.15;;;;;;;12.22;100.00;100675.09;5011632;28;20472;-78
2021/10/11 07:42:40;;;;;;;16.25;9.52;;;;;;;12.23;100.00;100670.81;5011170;28;20021;-75
2021/10/11 07:45:06;;;;;;;17.48;9.05;;;;;;;12.13;100.00;100664.44;5011178;28;20036;-74
2021/10/11 07:47:32;;;;;;;17.77;9.93;;;;;;;12.21;100.00;100678.53;5011489;28;20026;-74
2021/10/11 07:49:58;;;;;;;14.85;9.32;;;;;;;12.32;100.00;100686.63;5010007;28;20091;-75
2021/10/11 07:52:23;;;;;;;27.17;12.18;;;;;;;12.18;100.00;100669.78;5011298;28;20022;-73
2021/10/11 07:54:48;;;;;;;28.15;12.93;;;;;;;12.38;100.00;100702.38;5011476;28;20422;-73
2021/10/11 07:57:14;;;;;;;19.63;12.77;;;;;;;12.38;100.00;100696.31;5010850;28;20026;-78
2021/10/11 07:59:39;;;;;;;37.03;19.45;;;;;;;12.48;100.00;100706.16;5010617;28;20046;-72
2021/10/11 08:02:05;;;;;;;25.35;12.23;;;;;;;12.51;100.00;100695.91;5012058;28;20021;-72
2021/10/11 08:04:30;;;;;;;29.23;12.88;;;;;;;12.52;100.00;100697.63;5015153;28;20022;-73
2021/10/11 08:06:56;;;;;;;24.88;13.52;;;;;;;12.44;100.00;100697.38;5015137;28;20022;-71
2021/10/11 08:09:22;;;;;;;20.35;9.98;;;;;;;12.48;100.00;100697.50;5014990;28;20026;-77
2021/10/11 08:11:47;;;;;;;17.02;9.88;;;;;;;12.40;100.00;100687.78;5015027;28;20026;-71
2021/10/11 08:14:13;;;;;;;19.92;11.75;;;;;;;12.38;100.00;100698.91;5015047;28;20029;-79
2021/10/11 08:16:40;;;;;;;16.92;10.93;;;;;;;12.35;100.00;100684.16;5014877;28;20024;-76
2021/10/11 08:19:07;;;;;;;23.20;12.65;;;;;;;12.50;100.00;100682.88;5014754;28;20030;-74
2021/10/11 08:21:33;;;;;;;18.75;11.45;;;;;;;12.44;100.00;100671.50;5014863;28;20025;-74
2021/10/11 08:23:59;;;;;;;17.48;9.65;;;;;;;12.57;100.00;100679.66;5014669;28;20018;-74
2021/10/11 08:26:25;;;;;;;19.30;11.00;;;;;;;12.53;100.00;100670.06;5014720;28;20018;-72
2021/10/11 08:36:05;;;;;;;18.77;12.00;;;;;;;12.14;100.00;100656.72;5068549;27;1382513;-69
2021/10/11 08:38:32;;;;;;;24.92;14.07;;;;;;;12.25;100.00;100653.59;5090876;28;20040;-69
2021/10/11 08:40:58;;;;;;;21.63;13.13;;;;;;;12.42;100.00;100659.34;5106177;28;20076;-66
2021/10/11 08:43:23;;;;;;;20.77;11.27;;;;;;;12.03;100.00;100580.44;5105035;28;20457;-69
2021/10/11 08:45:51;;;;;;;19.92;13.13;;;;;;;12.48;100.00;100637.94;5100344;28;20032;-68
2021/10/11 08:48:16;;;;;;;25.08;12.77;;;;;;;12.45;100.00;100625.78;5095143;28;20197;-68
2021/10/11 08:50:42;;;;;;;27.38;12.23;;;;;;;12.66;100.00;100624.69;5108330;28;20119;-68
2021/10/11 08:53:09;;;;;;;21.20;12.45;;;;;;;12.65;100.00;100613.47;5099358;28;20087;-69
2021/10/11 08:55:35;;;;;;;30.85;12.57;;;;;;;12.76;100.00;100613.75;5088381;28;20472;-68
2021/10/11 08:58:07;;;;;;;26.92;13.88;;;;;;;12.68;100.00;100586.78;5088397;28;20033;-68
2021/10/11 09:00:34;;;;;;;32.53;14.25;;;;;;;12.85;100.00;100605.41;5089014;28;20374;-68
2021/10/11 09:03:01;;;;;;;32.97;12.90;;;;;;;12.88;100.00;100600.31;5108309;28;20030;-69
2021/10/11 09:05:38;;;;;;;28.38;12.63;;;;;;;12.52;100.00;100529.31;5108524;28;20047;-69
2021/10/11 09:08:07;;;;;;;25.95;10.30;;;;;;;13.00;100.00;100608.44;5107853;28;20032;-68
2021/10/11 09:10:55;;;;;;;27.83;9.38;;;;;;;13.03;100.00;100613.72;5095206;28;20039;-67
2021/10/11 09:13:26;;;;;;;25.67;10.13;;;;;;;13.06;100.00;100610.31;5100263;28;20047;-68
2021/10/11 09:16:40;;;;;;;23.35;8.50;;;;;;;13.10;100.00;100613.06;5107741;28;20420;-69
2021/10/11 09:19:24;;;;;;;19.75;7.50;;;;;;;13.17;100.00;100631.38;5088219;28;20080;-69
2021/10/11 09:21:50;;;;;;;22.77;7.38;;;;;;;13.17;100.00;100613.25;5088562;28;20320;-69
2021/10/11 09:24:20;;;;;;;11.50;6.22;;;;;;;12.91;100.00;100556.34;5087498;28;20025;-69
2021/10/11 09:26:47;;;;;;;15.00;7.13;;;;;;;13.29;100.00;100618.78;5088265;28;20024;-69
2021/10/11 09:29:14;;;;;;;15.30;7.25;;;;;;;13.24;100.00;100605.66;5099024;28;20024;-69
2021/10/11 09:31:48;;;;;;;11.98;6.18;;;;;;;13.39;100.00;100620.81;5087523;28;20819;-69
2021/10/11 09:34:15;;;;;;;16.33;6.78;;;;;;;13.42;100.00;100610.53;5036781;28;20538;-70
2021/10/11 09:36:41;;;;;;;15.20;7.72;;;;;;;12.98;100.00;100542.72;5087863;28;20398;-69
2021/10/11 09:39:06;;;;;;;12.68;7.13;;;;;;;13.00;100.00;100533.28;5087908;28;20028;-69
2021/10/11 09:41:32;;;;;;;15.02;9.88;;;;;;;13.42;100.00;100604.44;5087391;28;20515;-69
2021/10/11 09:43:58;;;;;;;13.82;8.00;;;;;;;13.38;100.00;100600.03;5087459;28;20034;-69
2021/10/11 09:46:26;;;;;;;15.85;6.88;;;;;;;13.35;100.00;100593.00;5079686;28;20170;-69
2021/10/11 09:48:54;;;;;;;17.33;7.88;;;;;;;13.37;100.00;100583.59;5073932;28;20574;-69
2021/10/11 09:51:24;;;;;;;11.70;7.07;;;;;;;13.45;100.00;100581.22;5078825;28;20405;-68
2021/10/11 09:53:52;;;;;;;18.35;8.88;;;;;;;13.48;100.00;100583.00;5093553;28;20110;-68
2021/10/11 09:56:17;;;;;;;28.23;11.13;;;;;;;13.47;100.00;100582.16;5094170;28;20044;-69
2021/10/11 09:58:43;;;;;;;31.25;12.40;;;;;;;13.47;100.00;100578.66;5094169;28;20125;-68
2021/10/11 10:01:10;;;;;;;28.00;10.50;;;;;;;13.46;100.00;100580.38;5094314;28;20028;-68
2021/10/11 10:03:37;;;;;;;33.28;16.13;;;;;;;13.51;100.00;100576.19;5093828;28;20111;-69
2021/10/11 10:06:06;;;;;;;48.15;20.48;;;;;;;13.50;100.00;100582.22;5088118;28;20027;-69
2021/10/11 10:08:34;;;;;;;28.08;10.70;;;;;;;13.50;100.00;100570.97;5083922;28;20482;-69
2021/10/11 10:11:01;;;;;;;38.15;12.52;;;;;;;13.09;100.00;100492.06;5090709;28;20028;-69
2021/10/11 10:13:27;;;;;;;29.55;9.73;;;;;;;13.56;100.00;100566.81;5093874;28;20028;-69
2021/10/11 10:15:55;;;;;;;34.22;10.90;;;;;;;13.49;100.00;100545.88;5094170;28;20028;-69
2021/10/11 10:18:22;;;;;;;27.20;9.70;;;;;;;13.63;100.00;100567.84;5093988;28;20028;-69
2021/10/11 10:20:58;;;;;;;25.48;8.18;;;;;;;13.48;100.00;100528.53;5075588;28;20066;-68
2021/10/11 10:23:34;;;;;;;27.45;10.98;;;;;;;13.67;100.00;100556.72;5058040;28;20126;-69
2021/10/11 10:26:03;;;;;;;21.70;12.25;;;;;;;13.22;100.00;100497.59;5093756;28;20123;-69
2021/10/11 10:28:50;;;;;;;33.85;19.02;;;;;;;13.51;100.00;100542.47;5089310;28;20063;-68
2021/10/11 10:31:45;;;;;;;31.70;24.85;;;;;;;13.54;100.00;100544.28;5093989;28;20050;-69
2021/10/11 10:34:19;;;;;;;24.25;12.50;;;;;;;13.51;100.00;100529.50;5013878;28;20172;-69
2021/10/11 10:36:46;;;;;;;32.25;20.27;;;;;;;13.56;100.00;100538.28;5031125;28;20134;-69
2021/10/11 10:39:14;;;;;;;45.05;22.17;;;;;;;13.55;100.00;100533.94;5018973;28;20530;-69
2021/10/11 10:41:53;;;;;;;25.05;12.52;;;;;;;13.56;100.00;100530.50;5011392;28;20046;-68
2021/10/11 10:44:21;;;;;;;57.67;37.67;;;;;;;13.56;100.00;100524.44;5011252;28;20049;-69
2021/10/11 10:46:49;;;;;;;38.22;18.88;;;;;;;13.55;100.00;100514.91;5011756;28;20092;-68
2021/10/11 10:49:24;;;;;;;30.48;12.48;;;;;;;13.57;100.00;100521.88;5011240;28;20581;-69
2021/10/11 10:51:50;;;;;;;31.17;18.02;;;;;;;13.62;100.00;100506.44;5010851;28;20037;-69
2021/10/11 10:54:15;;;;;;;24.05;12.73;;;;;;;13.61;100.00;100516.75;5040647;28;20551;-69
2021/10/11 10:56:41;;;;;;;27.27;11.85;;;;;;;13.59;100.00;100498.56;5039665;28;20507;-69
2021/10/11 10:59:10;;;;;;;26.83;13.05;;;;;;;13.67;100.00;100497.06;5031362;28;20033;-70
2021/10/11 11:01:36;;;;;;;32.58;12.13;;;;;;;13.65;100.00;100487.47;5030892;28;20040;-69
2021/10/11 11:04:10;;;;;;;34.08;12.30;;;;;;;13.66;100.00;100482.31;5030782;28;20033;-69
2021/10/11 11:06:36;;;;;;;48.50;15.00;;;;;;;13.62;100.00;100470.13;5023365;28;20446;-68
2021/10/11 11:09:02;;;;;;;38.28;15.50;;;;;;;13.67;100.00;100468.50;5025386;28;20040;-69
2021/10/11 11:11:29;;;;;;;26.15;10.88;;;;;;;13.59;100.00;100455.38;5067272;28;20496;-68